createdAt,value
2023-04-02T00:01:36.879Z,9.60
2023-04-02T00:06:35.013Z,9.60
2023-04-02T00:11:37.418Z,9.60
2023-04-02T00:16:30.107Z,9.50
2023-04-02T00:21:28.087Z,9.40
2023-04-02T00:26:41.316Z,9.20
2023-04-02T00:31:35.007Z,9.20
2023-04-02T00:36:30.394Z,9.20
2023-04-02T00:41:29.942Z,9.10
2023-04-02T00:46:27.681Z,9.00
2023-04-02T00:51:33.816Z,8.90
2023-04-02T00:56:33.218Z,9.00
2023-04-02T01:01:29.025Z,8.70
2023-04-02T01:13:39.969Z,8.60
2023-04-02T01:19:01.985Z,8.50
2023-04-02T01:23:59.744Z,8.40
2023-04-02T01:29:38.455Z,8.30
2023-04-02T01:34:31.067Z,8.20
2023-04-02T01:39:45.477Z,8.00
2023-04-02T01:44:51.127Z,7.80
2023-04-02T01:49:44.334Z,7.80
2023-04-02T01:54:37.861Z,7.80
2023-04-02T01:59:33.269Z,7.70
2023-04-02T02:04:28.340Z,7.70
2023-04-02T02:09:26.858Z,7.50
2023-04-02T02:14:24.771Z,7.50
2023-04-02T02:19:35.743Z,7.50
2023-04-02T02:24:31.878Z,7.50
2023-04-02T02:29:26.445Z,7.60
2023-04-02T02:34:32.470Z,7.50
2023-04-02T02:39:39.131Z,7.40
2023-04-02T02:44:35.221Z,7.40
2023-04-02T02:49:32.639Z,7.50
2023-04-02T02:54:29.685Z,7.40
2023-04-02T02:59:23.500Z,7.40
2023-04-02T03:04:22.711Z,7.40
2023-04-02T03:09:31.233Z,7.20
2023-04-02T03:14:41.074Z,7.00
2023-04-02T03:19:40.282Z,6.90
2023-04-02T03:24:45.706Z,6.80
2023-04-02T03:29:43.630Z,6.90
2023-04-02T03:34:49.859Z,6.80
2023-04-02T03:39:47.595Z,6.70
2023-04-02T03:45:06.743Z,6.70
2023-04-02T03:50:07.620Z,6.80
2023-04-02T03:55:02.665Z,6.80
2023-04-02T04:00:05.144Z,6.80
2023-04-02T04:05:19.231Z,6.80
2023-04-02T04:10:20.060Z,6.70
2023-04-02T04:15:25.136Z,6.70
2023-04-02T04:20:24.090Z,6.70
2023-04-02T04:25:33.937Z,6.60
2023-04-02T04:31:00.154Z,6.40
2023-04-02T04:35:59.745Z,6.30
2023-04-02T04:41:02.022Z,6.20
2023-04-02T04:46:05.923Z,6.10
2023-04-02T04:51:10.164Z,6.10
2023-04-02T04:56:18.794Z,6.00
2023-04-02T05:01:42.140Z,6.00
2023-04-02T05:06:41.229Z,6.00
2023-04-02T05:11:39.929Z,5.90
2023-04-02T05:17:01.389Z,5.90
2023-04-02T05:22:00.555Z,6.00
2023-04-02T05:26:54.466Z,6.10
2023-04-02T05:31:59.365Z,6.00
2023-04-02T05:36:53.764Z,5.90
2023-04-02T05:41:48.814Z,5.80
2023-04-02T05:47:06.056Z,5.80
2023-04-02T05:52:02.665Z,5.80
2023-04-02T05:57:12.349Z,5.80
2023-04-02T06:02:22.532Z,5.70
2023-04-02T06:07:48.437Z,5.80
2023-04-02T06:12:55.497Z,5.70
2023-04-02T06:17:51.237Z,5.70
2023-04-02T06:22:47.255Z,5.70
2023-04-02T06:27:41.695Z,5.70
2023-04-02T06:32:35.930Z,5.60
2023-04-02T06:37:36.413Z,5.60
2023-04-02T06:42:59.765Z,5.70
2023-04-02T06:48:20.898Z,5.90
2023-04-02T06:53:35.738Z,5.90
2023-04-02T06:58:31.776Z,6.00
2023-04-02T07:03:29.284Z,6.10
2023-04-02T07:08:24.599Z,5.70
2023-04-02T07:13:22.438Z,5.70
2023-04-02T07:18:30.368Z,5.60
2023-04-02T07:23:24.620Z,5.60
2023-04-02T07:28:17.429Z,5.40
2023-04-02T07:33:18.370Z,5.40
2023-04-02T07:38:10.873Z,5.50
2023-04-02T07:43:03.663Z,5.50
2023-04-02T07:47:56.119Z,5.70
2023-04-02T07:52:48.263Z,5.70
2023-04-02T07:57:54.554Z,5.70
2023-04-02T08:02:47.486Z,5.90
2023-04-02T08:07:40.263Z,5.80
2023-04-02T08:12:32.479Z,6.00
2023-04-02T08:17:24.617Z,6.20
2023-04-02T08:22:16.823Z,6.50
2023-04-02T08:27:12.078Z,6.40
2023-04-02T08:32:04.245Z,6.30
2023-04-02T08:36:58.079Z,6.20
2023-04-02T08:42:00.625Z,6.20
2023-04-02T08:46:58.891Z,6.20
2023-04-02T08:51:51.041Z,6.20
2023-04-02T08:56:49.571Z,6.10
2023-04-02T09:01:56.729Z,6.30
2023-04-02T09:06:52.438Z,6.50
2023-04-02T09:12:00.786Z,6.50
2023-04-02T09:16:56.152Z,6.20
2023-04-02T09:22:09.320Z,6.30
2023-04-02T09:27:02.347Z,6.30
2023-04-02T09:32:24.699Z,6.10
2023-04-02T09:37:22.958Z,6.10
2023-04-02T09:42:38.086Z,6.00
2023-04-02T09:47:32.385Z,6.00
2023-04-02T09:52:29.664Z,6.20
2023-04-02T09:57:25.100Z,6.20
2023-04-02T10:02:28.534Z,6.50
2023-04-02T10:07:49.170Z,6.80
2023-04-02T10:12:43.500Z,6.90
2023-04-02T10:17:38.228Z,6.60
2023-04-02T10:22:30.796Z,6.50
2023-04-02T10:27:39.714Z,6.30
2023-04-02T10:32:37.697Z,6.60
2023-04-02T10:38:03.362Z,6.80
2023-04-02T10:43:26.155Z,7.00
2023-04-02T10:48:29.152Z,7.10
2023-04-02T10:53:32.250Z,7.10
2023-04-02T10:58:30.872Z,7.10
2023-04-02T11:03:40.356Z,7.20
2023-04-02T11:08:32.742Z,7.20
2023-04-02T11:13:37.101Z,7.30
2023-04-02T11:18:36.725Z,7.50
2023-04-02T11:23:34.489Z,7.70
2023-04-02T11:28:31.734Z,7.40
2023-04-02T11:33:38.069Z,7.60
2023-04-02T11:38:46.694Z,7.60
2023-04-02T11:43:39.187Z,7.50
2023-04-02T11:48:35.996Z,7.40
2023-04-02T11:53:34.470Z,7.40
2023-04-02T11:58:51.709Z,7.60
2023-04-02T12:03:58.990Z,7.90
2023-04-02T12:09:09.806Z,7.60
2023-04-02T12:14:06.699Z,7.30
2023-04-02T12:19:00.122Z,7.40
2023-04-02T12:23:55.985Z,7.90
2023-04-02T12:28:47.952Z,8.30
2023-04-02T12:33:41.196Z,8.10
2023-04-02T12:38:48.351Z,8.50
2023-04-02T12:43:40.787Z,8.80
2023-04-02T12:48:35.049Z,9.10
2023-04-02T12:53:35.097Z,9.10
2023-04-02T12:58:31.040Z,9.00
2023-04-02T13:03:23.145Z,8.90
2023-04-02T13:08:22.759Z,9.10
2023-04-02T13:13:20.202Z,9.40
2023-04-02T13:18:21.521Z,8.50
2023-04-02T13:23:32.966Z,8.30
2023-04-02T13:28:25.561Z,8.40
2023-04-02T13:33:17.921Z,8.00
2023-04-02T13:38:09.913Z,7.70
2023-04-02T13:43:02.960Z,7.60
2023-04-02T13:47:57.457Z,7.60
2023-04-02T13:52:51.543Z,7.60
2023-04-02T13:57:43.574Z,7.50
2023-04-02T14:02:43.389Z,7.80
2023-04-02T14:07:57.189Z,7.80
2023-04-02T14:13:01.821Z,8.00
2023-04-02T14:18:14.850Z,7.90
2023-04-02T14:23:35.923Z,7.90
2023-04-02T14:28:43.432Z,7.60
2023-04-02T14:33:50.524Z,7.60
2023-04-02T14:39:24.035Z,7.80
2023-04-02T14:44:20.223Z,7.70
2023-04-02T14:49:39.625Z,7.50
2023-04-02T14:54:58.678Z,7.30
2023-04-02T15:00:26.055Z,7.10
2023-04-02T15:05:22.635Z,7.10
2023-04-02T15:10:39.201Z,7.10
2023-04-02T15:15:48.243Z,7.00
2023-04-02T15:20:49.797Z,6.90
2023-04-02T15:25:49.974Z,7.10
2023-04-02T15:30:44.292Z,7.50
2023-04-02T15:35:49.649Z,7.70
2023-04-02T15:41:04.319Z,7.70
2023-04-02T15:46:43.943Z,7.80
2023-04-02T15:51:54.440Z,7.80
2023-04-02T15:56:51.364Z,7.60
2023-04-02T16:02:31.137Z,7.60
2023-04-02T16:07:41.361Z,7.70
2023-04-02T16:12:37.415Z,7.60
2023-04-02T16:17:36.975Z,7.70
2023-04-02T16:22:30.754Z,7.70
2023-04-02T16:27:34.614Z,7.70
2023-04-02T16:33:15.343Z,7.50
2023-04-02T16:38:34.705Z,7.70
2023-04-02T16:43:38.114Z,7.60
2023-04-02T16:48:36.081Z,7.50
2023-04-02T16:54:00.377Z,7.30
2023-04-02T16:59:16.615Z,7.30
2023-04-02T17:04:47.396Z,7.10
2023-04-02T17:09:44.469Z,7.10
2023-04-02T17:14:57.516Z,7.10
2023-04-02T17:19:55.998Z,7.10
2023-04-02T17:24:54.051Z,7.00
2023-04-02T17:29:50.755Z,6.90
2023-04-02T17:34:42.923Z,6.90
2023-04-02T17:40:01.338Z,6.90
2023-04-02T17:45:04.363Z,6.90
2023-04-02T17:50:39.680Z,6.80
2023-04-02T17:55:52.934Z,6.70
2023-04-02T18:01:06.622Z,6.60
2023-04-02T18:06:18.901Z,6.40
2023-04-02T18:11:32.433Z,6.40
2023-04-02T18:16:30.847Z,6.30
2023-04-02T18:21:47.218Z,6.30
2023-04-02T18:26:51.570Z,6.40
2023-04-02T18:31:56.133Z,6.40
2023-04-02T18:36:57.277Z,6.40
2023-04-02T18:42:40.005Z,6.40
2023-04-02T18:48:08.829Z,6.40
2023-04-02T18:53:25.527Z,6.40
2023-04-02T18:58:29.847Z,6.40
2023-04-02T19:03:48.854Z,6.50
2023-04-02T19:08:56.379Z,6.50
2023-04-02T19:13:50.956Z,6.40
2023-04-02T19:19:21.916Z,6.40
2023-04-02T19:24:39.265Z,6.40
2023-04-02T19:29:39.988Z,6.40
2023-04-02T19:34:57.413Z,6.40
2023-04-02T19:39:55.537Z,6.30
2023-04-02T19:44:53.539Z,6.30
2023-04-02T19:49:46.090Z,6.30
2023-04-02T19:54:39.128Z,6.30
2023-04-02T19:59:31.339Z,6.30
2023-04-02T20:04:23.549Z,6.20
2023-04-02T20:09:15.925Z,6.20
2023-04-02T20:14:07.939Z,6.20
2023-04-02T20:19:00.124Z,6.20
2023-04-02T20:23:55.725Z,6.20
2023-04-02T20:28:47.784Z,6.20
2023-04-02T20:33:40.231Z,6.20
2023-04-02T20:38:33.215Z,6.10
2023-04-02T20:43:25.963Z,6.10
2023-04-02T20:48:18.638Z,6.10
2023-04-02T20:53:11.211Z,6.10
2023-04-02T20:58:03.346Z,6.10
2023-04-02T21:02:55.500Z,6.00
2023-04-02T21:07:48.690Z,6.10
2023-04-02T21:12:40.821Z,6.00
2023-04-02T21:17:32.841Z,6.10
2023-04-02T21:22:25.129Z,6.00
2023-04-02T21:27:17.458Z,6.00
2023-04-02T21:32:20.863Z,6.00
2023-04-02T21:37:13.622Z,6.00
2023-04-02T21:42:05.754Z,6.00
2023-04-02T21:46:57.765Z,5.90
2023-04-02T21:51:51.813Z,5.70
2023-04-02T21:56:45.959Z,5.80
2023-04-02T22:01:40.878Z,5.80
2023-04-02T22:06:38.006Z,5.70
2023-04-02T22:11:44.771Z,5.70
2023-04-02T22:16:37.887Z,5.70
2023-04-02T22:21:31.203Z,5.60
2023-04-02T22:26:23.498Z,5.60
2023-04-02T22:31:18.673Z,5.50
2023-04-02T22:36:11.800Z,5.50
2023-04-02T22:41:08.037Z,5.40
2023-04-02T22:46:00.624Z,5.40
2023-04-02T22:50:53.428Z,5.30
2023-04-02T22:55:45.464Z,5.20
2023-04-02T23:00:39.338Z,5.20
2023-04-02T23:05:32.858Z,5.10
2023-04-02T23:10:25.391Z,5.10
2023-04-02T23:15:21.324Z,5.00
2023-04-02T23:20:13.418Z,4.90
2023-04-02T23:25:08.330Z,4.70
2023-04-02T23:30:00.660Z,4.60
2023-04-02T23:34:53.288Z,4.60
2023-04-02T23:39:45.356Z,4.50
2023-04-02T23:44:37.490Z,4.50
2023-04-02T23:49:29.538Z,4.40
2023-04-02T23:55:01.196Z,4.40
